Time;durP1;ratioP1;P1;durP2;ratioP2;P2;SDS_P1;SDS_P2;PMS_P1;PMS_P2;Temp;Humidity;BMP_temperature;BMP_pressure;BME280_temperature;BME280_humidity;BME280_pressure;Samples;Min_cycle;Max_cycle;Signal;HPM_P1;HPM_P2
2022/09/24 00:01:30;;;;;;;7.30;6.50;;;12.70;99.90;;;;;;5055656;28;20579;-44
2022/09/24 00:04:05;;;;;;;7.47;6.07;;;12.70;99.90;;;;;;5056641;28;20674;-44
2022/09/24 00:06:36;;;;;;;7.70;6.60;;;12.70;99.90;;;;;;5056559;28;20175;-43
2022/09/24 00:09:02;;;;;;;9.20;6.83;;;12.60;99.90;;;;;;5074612;28;20167;-44
2022/09/24 00:11:28;;;;;;;11.33;7.83;;;12.70;99.90;;;;;;5074649;28;20590;-45
2022/09/24 00:13:55;;;;;;;9.87;7.47;;;12.70;99.90;;;;;;5056452;28;20184;-45
2022/09/24 00:16:24;;;;;;;9.37;7.40;;;12.70;99.90;;;;;;5074372;28;20179;-44
2022/09/24 00:18:50;;;;;;;9.90;7.37;;;12.60;99.90;;;;;;5056297;28;20204;-44
2022/09/24 00:21:22;;;;;;;9.50;7.43;;;12.60;99.90;;;;;;5074582;28;20239;-42
2022/09/24 00:23:59;;;;;;;10.03;7.77;;;12.60;99.90;;;;;;5074248;28;20229;-44
2022/09/24 00:29:13;;;;;;;13.83;7.40;;;12.60;99.90;;;;;;5074446;28;20609;-43
2022/09/24 00:31:38;;;;;;;8.00;6.73;;;12.50;99.90;;;;;;5074168;28;20768;-43
2022/09/24 00:34:04;;;;;;;9.40;7.53;;;12.50;99.90;;;;;;5074220;28;20254;-44
2022/09/24 00:36:30;;;;;;;10.57;8.23;;;12.50;99.90;;;;;;5074133;28;20172;-45
2022/09/24 00:38:57;;;;;;;11.37;8.07;;;12.50;99.90;;;;;;5074078;28;20187;-44
2022/09/24 00:41:28;;;;;;;9.63;7.47;;;12.50;99.90;;;;;;5074038;28;20585;-44
2022/09/24 00:43:54;;;;;;;9.97;7.47;;;12.50;99.90;;;;;;5056005;28;20577;-44
2022/09/24 00:46:27;;;;;;;12.63;8.40;;;12.50;99.90;;;;;;5073586;28;20267;-42
2022/09/24 00:49:00;;;;;;;9.90;8.57;;;12.50;99.90;;;;;;5074353;28;20172;-44
2022/09/24 00:51:29;;;;;;;10.40;8.37;;;12.50;99.90;;;;;;5073977;28;20195;-44
2022/09/24 00:54:06;;;;;;;10.17;8.27;;;12.40;99.90;;;;;;5073543;28;20190;-43
2022/09/24 00:56:35;;;;;;;10.27;8.00;;;12.40;99.90;;;;;;5073797;28;20164;-44
2022/09/24 00:59:03;;;;;;;14.20;8.40;;;12.50;99.90;;;;;;5073791;28;20195;-39
2022/09/24 01:01:29;;;;;;;11.27;8.03;;;12.40;99.90;;;;;;5073705;28;20241;-37
2022/09/24 01:03:57;;;;;;;9.67;7.70;;;12.40;99.90;;;;;;5073295;28;20270;-40
2022/09/24 01:06:24;;;;;;;9.40;7.40;;;12.40;99.90;;;;;;5055123;28;20187;-38
2022/09/24 01:08:50;;;;;;;10.43;7.60;;;12.40;99.90;;;;;;5073172;28;20192;-41
2022/09/24 01:11:34;;;;;;;8.97;7.47;;;12.40;99.90;;;;;;5073125;28;20230;-38
2022/09/24 01:14:18;;;;;;;10.83;8.27;;;12.40;99.90;;;;;;5073479;28;20156;-40
2022/09/24 01:17:13;;;;;;;11.13;7.50;;;12.50;99.90;;;;;;5073355;28;20199;-42
2022/09/24 01:19:56;;;;;;;10.73;7.90;;;12.40;99.90;;;;;;5051076;28;20192;-37
2022/09/24 01:22:45;;;;;;;8.60;7.17;;;12.40;99.90;;;;;;5073324;28;20171;-40
2022/09/24 01:25:35;;;;;;;9.77;7.20;;;12.30;99.90;;;;;;5073298;28;20156;-40
2022/09/24 01:28:11;;;;;;;11.73;7.23;;;12.30;99.90;;;;;;5072992;28;20201;-38
2022/09/24 01:30:40;;;;;;;8.77;7.03;;;12.30;99.90;;;;;;5072944;28;20276;-41
2022/09/24 01:33:12;;;;;;;9.77;6.60;;;12.20;99.90;;;;;;5055148;28;20179;-38
2022/09/24 01:35:46;;;;;;;10.90;7.23;;;12.20;99.90;;;;;;5073235;28;20477;-39
2022/09/24 01:38:25;;;;;;;9.63;7.53;;;12.20;99.90;;;;;;5072953;28;20225;-37
2022/09/24 01:40:53;;;;;;;7.43;6.60;;;12.20;99.90;;;;;;5073454;28;20556;-40
2022/09/24 01:43:22;;;;;;;8.33;7.00;;;12.00;99.90;;;;;;5073123;28;20195;-41
2022/09/24 01:45:48;;;;;;;11.23;7.63;;;12.10;99.90;;;;;;5073203;28;20186;-42
2022/09/24 01:48:15;;;;;;;12.80;8.37;;;12.00;99.90;;;;;;5072772;28;20290;-41
2022/09/24 01:51:05;;;;;;;10.77;7.53;;;12.00;99.90;;;;;;5073322;28;20171;-41
2022/09/24 01:53:41;;;;;;;10.53;8.50;;;12.00;99.90;;;;;;5054870;28;20186;-41
2022/09/24 01:56:17;;;;;;;10.30;8.27;;;12.00;99.90;;;;;;5073124;28;20170;-40
2022/09/24 01:58:52;;;;;;;11.00;8.53;;;11.90;99.90;;;;;;5055205;28;20186;-36
2022/09/24 02:01:30;;;;;;;10.43;7.63;;;12.00;99.90;;;;;;5054711;28;20183;-38
2022/09/24 02:04:00;;;;;;;11.80;7.87;;;12.00;99.90;;;;;;5075333;28;20167;-43
2022/09/24 02:06:32;;;;;;;12.40;8.53;;;12.00;99.90;;;;;;5073266;28;20627;-43
2022/09/24 02:08:58;;;;;;;13.10;9.00;;;12.00;99.90;;;;;;5072698;28;20168;-39
2022/09/24 02:11:24;;;;;;;10.83;8.83;;;12.00;99.90;;;;;;5072765;28;20561;-41
2022/09/24 02:13:54;;;;;;;12.47;8.77;;;12.00;99.90;;;;;;5072845;28;20175;-39
2022/09/24 02:16:24;;;;;;;13.10;9.20;;;12.00;99.90;;;;;;5072848;28;20179;-41
2022/09/24 02:18:53;;;;;;;12.20;9.47;;;12.00;99.90;;;;;;5072768;28;20164;-40
2022/09/24 02:21:21;;;;;;;13.63;8.83;;;12.00;99.90;;;;;;5072526;28;20183;-41
2022/09/24 02:23:51;;;;;;;12.27;9.33;;;12.00;99.90;;;;;;5073518;28;20190;-41
2022/09/24 02:26:17;;;;;;;13.73;9.80;;;12.00;99.90;;;;;;5059478;28;20276;-39
2022/09/24 02:28:42;;;;;;;11.77;9.70;;;12.00;99.90;;;;;;5058151;28;20211;-38
2022/09/24 02:31:24;;;;;;;12.17;9.37;;;12.00;99.90;;;;;;5076592;28;20540;-38
2022/09/24 02:36:35;;;;;;;13.53;10.10;;;12.10;99.90;;;;;;5076694;28;20171;-41
2022/09/24 02:39:01;;;;;;;11.17;8.87;;;12.00;99.90;;;;;;5076088;28;20229;-41
2022/09/24 02:41:29;;;;;;;14.73;10.00;;;12.00;99.90;;;;;;5076056;28;20171;-39
2022/09/24 02:43:55;;;;;;;15.70;11.07;;;12.00;99.90;;;;;;5075933;28;20218;-39
2022/09/24 02:46:21;;;;;;;13.07;9.93;;;12.00;99.90;;;;;;5057757;28;20629;-42
2022/09/24 02:48:46;;;;;;;12.37;9.87;;;12.00;99.90;;;;;;5075891;28;20187;-41
2022/09/24 02:51:12;;;;;;;12.67;10.00;;;12.00;99.90;;;;;;5075813;28;20286;-39
2022/09/24 02:53:37;;;;;;;12.63;9.20;;;11.90;99.90;;;;;;5075883;28;20172;-41
2022/09/24 02:56:03;;;;;;;11.80;9.20;;;12.00;99.90;;;;;;5075826;28;20190;-39
2022/09/24 02:58:30;;;;;;;12.60;9.90;;;11.90;99.90;;;;;;5075993;28;20192;-41
2022/09/24 03:00:56;;;;;;;15.97;9.97;;;11.90;99.90;;;;;;5075656;28;20184;-42
2022/09/24 03:03:23;;;;;;;18.40;11.30;;;11.90;99.90;;;;;;5075751;28;20184;-41
2022/09/24 03:05:51;;;;;;;13.17;10.13;;;11.90;99.90;;;;;;5076137;28;20179;-41
2022/09/24 03:08:18;;;;;;;17.07;10.30;;;11.90;99.90;;;;;;5075544;28;20571;-40
2022/09/24 03:10:43;;;;;;;17.53;10.87;;;11.90;99.90;;;;;;5075710;28;20191;-41
2022/09/24 03:13:10;;;;;;;14.20;9.53;;;11.90;99.90;;;;;;5076113;28;20751;-42
2022/09/24 03:15:35;;;;;;;11.17;8.87;;;11.80;99.90;;;;;;5057420;28;20285;-41
2022/09/24 03:18:02;;;;;;;13.00;9.43;;;11.80;99.90;;;;;;5075458;28;20274;-40
2022/09/24 03:20:28;;;;;;;14.07;9.80;;;11.80;99.90;;;;;;5057471;28;20213;-41
2022/09/24 03:22:53;;;;;;;12.80;9.40;;;11.80;99.90;;;;;;5075680;28;20281;-43
2022/09/24 03:25:19;;;;;;;10.43;9.13;;;11.80;99.90;;;;;;5075354;28;20211;-43
2022/09/24 03:27:45;;;;;;;10.67;8.23;;;11.70;99.90;;;;;;5057430;28;20587;-40
2022/09/24 03:32:56;;;;;;;11.90;9.03;;;11.70;99.90;;;;;;5075640;28;20195;-41
2022/09/24 03:35:22;;;;;;;11.37;8.80;;;11.70;99.90;;;;;;5074866;28;20203;-38
2022/09/24 03:37:47;;;;;;;11.60;9.07;;;11.70;99.90;;;;;;5075017;28;20606;-39
2022/09/24 03:40:13;;;;;;;10.20;8.70;;;11.60;99.90;;;;;;5056995;28;20175;-39
2022/09/24 03:42:39;;;;;;;13.17;9.20;;;11.60;99.90;;;;;;5075188;28;20186;-40
2022/09/24 03:45:05;;;;;;;10.90;8.70;;;11.70;99.90;;;;;;5074810;28;20232;-39
2022/09/24 03:47:31;;;;;;;11.57;9.20;;;11.60;99.90;;;;;;5074712;28;20281;-42
2022/09/24 03:49:57;;;;;;;10.93;8.50;;;11.60;99.90;;;;;;5075087;28;20649;-38
2022/09/24 03:52:23;;;;;;;16.73;9.37;;;11.60;99.90;;;;;;5074625;28;20233;-40
2022/09/24 03:54:49;;;;;;;10.53;8.77;;;11.60;99.90;;;;;;5074592;28;20191;-39
2022/09/24 03:57:14;;;;;;;12.47;9.67;;;11.60;99.90;;;;;;5074849;28;20208;-40
2022/09/24 03:59:41;;;;;;;11.57;8.47;;;11.60;99.90;;;;;;5074760;28;20180;-39
2022/09/24 04:02:07;;;;;;;9.17;7.40;;;11.60;99.90;;;;;;5074542;28;20176;-39
2022/09/24 04:04:33;;;;;;;12.57;8.00;;;11.60;99.90;;;;;;5075268;28;20186;-38
2022/09/24 04:06:58;;;;;;;10.77;7.97;;;11.60;99.90;;;;;;5074539;28;20203;-39
2022/09/24 04:09:24;;;;;;;12.23;8.07;;;11.60;99.90;;;;;;5074420;28;20176;-37
2022/09/24 04:11:52;;;;;;;12.33;8.07;;;11.60;99.90;;;;;;5074222;28;20191;-39
2022/09/24 04:14:19;;;;;;;11.10;8.43;;;11.60;99.90;;;;;;5074204;28;20183;-40
2022/09/24 04:16:45;;;;;;;10.40;8.30;;;11.60;99.90;;;;;;5074156;28;20207;-41
2022/09/24 04:19:12;;;;;;;11.07;8.83;;;11.60;99.90;;;;;;5074434;28;20176;-40
2022/09/24 04:21:37;;;;;;;10.30;8.37;;;11.60;99.90;;;;;;5073975;28;20244;-40
2022/09/24 04:24:04;;;;;;;12.90;9.17;;;11.50;99.90;;;;;;5073996;28;20700;-40
2022/09/24 04:26:29;;;;;;;15.57;10.40;;;11.60;99.90;;;;;;5056130;28;20682;-41
2022/09/24 04:28:57;;;;;;;14.63;10.20;;;11.50;99.90;;;;;;5074329;28;20180;-38
2022/09/24 04:31:24;;;;;;;14.77;10.10;;;11.60;99.90;;;;;;5056129;28;20230;-40
2022/09/24 04:33:50;;;;;;;17.97;12.00;;;11.50;99.90;;;;;;5056551;28;20183;-39
2022/09/24 04:36:16;;;;;;;13.40;10.30;;;11.60;99.90;;;;;;5073736;28;20187;-41
2022/09/24 04:38:41;;;;;;;13.23;10.00;;;11.60;99.90;;;;;;5073809;28;20218;-40
2022/09/24 04:41:08;;;;;;;14.03;10.13;;;11.60;99.90;;;;;;5074072;28;20180;-41
2022/09/24 04:43:35;;;;;;;12.53;9.23;;;11.60;99.90;;;;;;5073940;28;20494;-39
2022/09/24 04:46:02;;;;;;;11.90;9.43;;;11.60;99.90;;;;;;5073342;28;20171;-39
2022/09/24 04:48:28;;;;;;;12.70;9.23;;;11.60;99.90;;;;;;5055484;28;20676;-38
2022/09/24 04:50:54;;;;;;;14.77;9.07;;;11.60;99.90;;;;;;5073441;28;20210;-39
2022/09/24 04:53:22;;;;;;;12.13;9.57;;;11.60;99.90;;;;;;5073957;28;20167;-38
2022/09/24 04:55:47;;;;;;;12.60;8.93;;;11.60;99.90;;;;;;5055557;28;20552;-38
2022/09/24 04:58:13;;;;;;;11.60;8.80;;;11.60;99.90;;;;;;5073435;28;20191;-43
2022/09/24 05:00:38;;;;;;;10.57;8.53;;;11.50;99.90;;;;;;5073721;28;20180;-39
2022/09/24 05:03:04;;;;;;;11.70;8.67;;;11.60;99.90;;;;;;5073718;28;20175;-41
2022/09/24 05:05:31;;;;;;;12.57;8.70;;;11.60;99.90;;;;;;5073352;28;20182;-41
2022/09/24 05:07:57;;;;;;;12.60;7.80;;;11.60;99.90;;;;;;5055239;28;20206;-40
2022/09/24 05:10:24;;;;;;;11.90;8.23;;;11.60;99.90;;;;;;5073326;28;20533;-41
2022/09/24 05:12:50;;;;;;;11.80;8.27;;;11.60;99.90;;;;;;5073187;28;20559;-38
2022/09/24 05:15:18;;;;;;;10.30;8.30;;;11.50;99.90;;;;;;5055382;28;20178;-40
2022/09/24 05:17:44;;;;;;;13.53;8.17;;;11.50;99.90;;;;;;5073323;28;20196;-40
2022/09/24 05:20:10;;;;;;;11.03;7.57;;;11.60;99.90;;;;;;5055255;28;20573;-42
2022/09/24 05:22:46;;;;;;;8.53;6.97;;;11.60;99.90;;;;;;5073187;28;20189;-40
2022/09/24 05:25:13;;;;;;;10.27;6.93;;;11.50;99.90;;;;;;5056547;28;20166;-40
2022/09/24 05:27:50;;;;;;;10.47;7.50;;;11.50;99.90;;;;;;5073382;28;20244;-41
2022/09/24 05:30:17;;;;;;;9.27;7.57;;;11.50;99.90;;;;;;5073076;28;20183;-41
2022/09/24 05:32:44;;;;;;;8.13;7.10;;;11.60;99.90;;;;;;5072947;28;20199;-42
2022/09/24 05:35:10;;;;;;;10.47;8.50;;;11.50;99.90;;;;;;5073117;28;20255;-42
2022/09/24 05:37:37;;;;;;;12.77;7.80;;;11.50;99.90;;;;;;5073008;28;20199;-41
2022/09/24 05:42:50;;;;;;;8.07;6.47;;;11.50;99.90;;;;;;5073645;28;20166;-41
2022/09/24 05:45:17;;;;;;;9.30;6.70;;;11.50;99.90;;;;;;5054852;28;20179;-42
2022/09/24 05:47:44;;;;;;;11.77;6.20;;;11.50;99.90;;;;;;5073145;28;20207;-41
2022/09/24 05:50:10;;;;;;;19.73;12.40;;;11.50;99.90;;;;;;5073150;28;20180;-39
2022/09/24 05:52:36;;;;;;;11.63;8.60;;;11.50;99.90;;;;;;5054738;28;20663;-40
2022/09/24 05:55:02;;;;;;;12.43;7.53;;;11.50;99.90;;;;;;5073304;28;20194;-42
2022/09/24 05:57:28;;;;;;;9.67;7.63;;;11.60;99.90;;;;;;5072673;28;20317;-38
2022/09/24 05:59:53;;;;;;;10.03;7.57;;;11.60;99.90;;;;;;5076134;28;20179;-42
2022/09/24 06:02:19;;;;;;;12.27;7.70;;;11.60;99.90;;;;;;5077783;28;20175;-39
2022/09/24 06:04:44;;;;;;;8.33;7.43;;;11.60;99.90;;;;;;5078418;28;20180;-38
2022/09/24 06:07:10;;;;;;;10.07;7.20;;;11.60;99.90;;;;;;5077357;28;20203;-40
2022/09/24 06:09:36;;;;;;;9.23;6.57;;;11.70;99.90;;;;;;5077345;28;20268;-39
2022/09/24 06:12:01;;;;;;;9.63;7.00;;;11.60;99.90;;;;;;5077028;28;20199;-39
2022/09/24 06:14:27;;;;;;;9.33;6.43;;;11.70;99.90;;;;;;5077064;28;20175;-40
2022/09/24 06:16:53;;;;;;;10.40;7.17;;;11.70;99.90;;;;;;5076981;28;20726;-39
2022/09/24 06:19:19;;;;;;;9.13;6.57;;;11.80;99.90;;;;;;5077153;28;20254;-40
2022/09/24 06:21:44;;;;;;;8.07;6.90;;;11.80;99.90;;;;;;5058720;28;20188;-41
2022/09/24 06:24:10;;;;;;;9.97;7.07;;;11.90;99.90;;;;;;5076683;28;20182;-40
2022/09/24 06:26:36;;;;;;;10.33;7.13;;;11.90;99.90;;;;;;5076278;28;20562;-39
2022/09/24 06:29:01;;;;;;;10.57;7.47;;;11.90;99.90;;;;;;5076276;28;20270;-39
2022/09/24 06:31:27;;;;;;;8.53;6.77;;;12.00;99.90;;;;;;5076137;28;20214;-39
2022/09/24 06:33:53;;;;;;;9.20;7.83;;;12.00;99.90;;;;;;5076503;28;20175;-41
2022/09/24 06:36:18;;;;;;;11.47;7.80;;;12.10;99.90;;;;;;5076659;28;20183;-42
2022/09/24 06:38:44;;;;;;;10.50;7.03;;;12.10;99.90;;;;;;5076048;28;20684;-37
2022/09/24 06:41:10;;;;;;;10.67;7.37;;;12.20;99.90;;;;;;5076248;28;20187;-38
2022/09/24 06:43:35;;;;;;;11.47;8.17;;;12.20;99.90;;;;;;5076396;28;20622;-42
2022/09/24 06:46:02;;;;;;;11.77;7.63;;;12.30;99.90;;;;;;5076236;28;20196;-40
2022/09/24 06:48:29;;;;;;;9.27;8.03;;;12.40;99.90;;;;;;5076168;28;20573;-40
2022/09/24 06:50:55;;;;;;;11.73;7.43;;;12.40;99.90;;;;;;5075909;28;20171;-42
2022/09/24 06:53:21;;;;;;;10.67;7.67;;;12.40;99.90;;;;;;5076072;28;20262;-40
2022/09/24 06:55:47;;;;;;;13.70;7.70;;;12.40;99.90;;;;;;5075813;28;20176;-39
2022/09/24 06:58:19;;;;;;;13.70;7.53;;;12.50;99.90;;;;;;5075948;28;20195;-40
2022/09/24 07:00:52;;;;;;;9.30;7.23;;;12.60;99.90;;;;;;5075977;28;20178;-39
2022/09/24 07:03:17;;;;;;;14.57;7.40;;;12.60;99.90;;;;;;5075782;28;20612;-40
2022/09/24 07:05:43;;;;;;;10.70;7.53;;;12.60;99.90;;;;;;5075676;28;20176;-41
2022/09/24 07:08:08;;;;;;;11.97;8.00;;;12.70;99.90;;;;;;5076056;28;20192;-42
2022/09/24 07:10:34;;;;;;;11.70;7.10;;;12.70;99.90;;;;;;5074967;28;20228;-38
2022/09/24 07:12:59;;;;;;;15.60;8.00;;;12.70;99.90;;;;;;5075479;28;20249;-39
2022/09/24 07:15:25;;;;;;;10.63;7.60;;;12.80;99.90;;;;;;5075545;28;20171;-39
2022/09/24 07:17:57;;;;;;;10.37;7.50;;;12.90;99.90;;;;;;5075435;28;20340;-41
2022/09/24 07:20:27;;;;;;;11.20;8.00;;;12.90;99.90;;;;;;5075418;28;20186;-39
2022/09/24 07:22:53;;;;;;;12.47;8.27;;;13.00;99.90;;;;;;5075787;28;20318;-40
2022/09/24 07:25:19;;;;;;;11.17;8.10;;;13.00;99.90;;;;;;5075700;28;20188;-42
2022/09/24 07:27:44;;;;;;;8.93;7.63;;;13.10;99.90;;;;;;5075433;28;20203;-40
2022/09/24 07:30:11;;;;;;;13.80;8.00;;;13.10;99.90;;;;;;5075308;28;20218;-41
2022/09/24 07:32:37;;;;;;;14.50;8.57;;;13.20;99.90;;;;;;5075841;28;20207;-41
2022/09/24 07:35:02;;;;;;;10.83;7.73;;;13.30;99.90;;;;;;5075161;28;20179;-40
2022/09/24 07:37:31;;;;;;;11.23;8.90;;;13.30;99.90;;;;;;5075274;28;20195;-38
2022/09/24 07:39:57;;;;;;;11.53;8.70;;;13.40;99.90;;;;;;5075121;28;20167;-42
2022/09/24 07:42:24;;;;;;;11.33;7.93;;;13.50;99.90;;;;;;5075049;28;20267;-39
2022/09/24 07:44:50;;;;;;;14.97;9.23;;;13.60;99.90;;;;;;5056916;28;20211;-39
2022/09/24 07:47:15;;;;;;;12.17;9.00;;;13.70;99.90;;;;;;5074865;28;20199;-41
2022/09/24 07:49:41;;;;;;;13.97;10.03;;;13.80;99.90;;;;;;5074946;28;20172;-42
2022/09/24 07:52:07;;;;;;;11.73;9.33;;;13.80;99.90;;;;;;5075041;28;20207;-42
2022/09/24 07:54:32;;;;;;;14.57;10.23;;;13.90;99.90;;;;;;5075073;28;20172;-41
2022/09/24 07:56:59;;;;;;;15.60;10.13;;;14.00;99.90;;;;;;5074620;28;20688;-41
2022/09/24 07:59:25;;;;;;;15.23;10.53;;;14.10;99.90;;;;;;5075042;28;20188;-41
2022/09/24 08:01:51;;;;;;;18.47;10.90;;;14.20;99.90;;;;;;5074767;28;20180;-40
2022/09/24 08:04:17;;;;;;;14.63;10.00;;;14.30;99.90;;;;;;5075037;28;20548;-40
2022/09/24 08:06:42;;;;;;;14.40;10.07;;;14.30;99.90;;;;;;5074957;28;20200;-39
2022/09/24 08:09:08;;;;;;;21.37;11.57;;;14.40;99.90;;;;;;5074902;28;20583;-41
2022/09/24 08:11:33;;;;;;;17.43;11.43;;;14.40;99.90;;;;;;5075100;28;20207;-42
2022/09/24 08:13:59;;;;;;;17.13;10.83;;;14.40;99.90;;;;;;5074328;28;20215;-41
2022/09/24 08:16:25;;;;;;;14.47;10.80;;;14.50;99.90;;;;;;5056516;28;20256;-41
2022/09/24 08:18:54;;;;;;;15.23;10.93;;;14.60;99.90;;;;;;5078007;28;20183;-44
2022/09/24 08:21:19;;;;;;;15.23;11.50;;;14.60;99.90;;;;;;5080550;28;20202;-44
2022/09/24 08:23:45;;;;;;;16.17;11.03;;;14.70;99.90;;;;;;5063034;28;20192;-45
2022/09/24 08:26:12;;;;;;;15.27;11.30;;;14.80;99.90;;;;;;5081324;28;20183;-45
2022/09/24 08:28:41;;;;;;;12.73;10.50;;;14.90;99.90;;;;;;5080964;28;20567;-43
2022/09/24 08:31:11;;;;;;;18.00;11.53;;;15.00;99.90;;;;;;5081823;28;20238;-46
2022/09/24 08:33:37;;;;;;;15.17;11.23;;;15.10;99.90;;;;;;5080991;28;20229;-43
2022/09/24 08:36:05;;;;;;;16.70;11.27;;;15.20;99.90;;;;;;5081091;28;20217;-45
2022/09/24 08:38:31;;;;;;;17.60;11.33;;;15.30;99.90;;;;;;5080906;28;20714;-44
2022/09/24 08:41:13;;;;;;;18.17;12.03;;;15.40;99.90;;;;;;5080621;28;20211;-46
2022/09/24 08:44:10;;;;;;;18.13;10.87;;;15.50;99.90;;;;;;5080988;28;20175;-43
2022/09/24 08:49:34;;;;;;;14.57;10.13;;;15.70;99.90;;;;;;5080304;28;20637;-45
2022/09/24 08:52:28;;;;;;;17.33;11.07;;;15.80;99.90;;;;;;5079782;28;20199;-44
2022/09/24 08:54:55;;;;;;;14.70;11.07;;;15.80;99.90;;;;;;5079884;28;20623;-45
2022/09/24 08:57:21;;;;;;;15.40;10.20;;;16.00;99.90;;;;;;5078917;28;20195;-46
2022/09/24 08:59:51;;;;;;;14.63;10.87;;;16.00;99.90;;;;;;5061691;28;20215;-43
2022/09/24 09:02:25;;;;;;;15.93;11.67;;;16.10;99.90;;;;;;5078859;28;20176;-44
2022/09/24 09:05:06;;;;;;;16.53;10.93;;;16.20;99.90;;;;;;5078974;28;20185;-45
2022/09/24 09:07:44;;;;;;;15.60;10.30;;;16.30;99.90;;;;;;5078934;28;20203;-45
2022/09/24 09:10:26;;;;;;;14.90;9.87;;;16.40;99.90;;;;;;5079167;28;20171;-44
2022/09/24 09:13:10;;;;;;;15.80;10.10;;;16.50;99.90;;;;;;5078704;28;20597;-45
2022/09/24 09:15:40;;;;;;;16.20;10.83;;;16.60;99.90;;;;;;5075922;28;20229;-39
2022/09/24 09:18:22;;;;;;;16.47;11.07;;;16.70;99.90;;;;;;5075407;28;20223;-40
2022/09/24 09:20:48;;;;;;;16.43;11.23;;;16.80;99.90;;;;;;5073465;28;20164;-41
2022/09/24 09:23:31;;;;;;;15.50;10.73;;;16.90;99.90;;;;;;5055276;28;20188;-40
2022/09/24 09:25:58;;;;;;;13.93;11.20;;;16.90;99.90;;;;;;5073754;28;20171;-40
2022/09/24 09:28:26;;;;;;;16.70;11.83;;;17.00;99.90;;;;;;5073072;28;20203;-39
2022/09/24 09:30:59;;;;;;;17.70;10.93;;;17.00;99.90;;;;;;5072904;28;20202;-42
2022/09/24 09:33:30;;;;;;;16.57;11.13;;;17.10;99.90;;;;;;5072766;28;20214;-42
2022/09/24 09:36:11;;;;;;;15.63;11.30;;;17.20;99.90;;;;;;5073245;28;20282;-39
2022/09/24 09:38:42;;;;;;;19.73;12.20;;;17.20;99.90;;;;;;5072948;28;20207;-41
2022/09/24 09:41:21;;;;;;;17.30;11.37;;;17.30;99.90;;;;;;5073858;28;20225;-39
2022/09/24 09:43:47;;;;;;;15.87;11.03;;;17.30;99.90;;;;;;5073067;28;20278;-39
2022/09/24 09:46:28;;;;;;;16.40;11.77;;;17.40;99.90;;;;;;5055027;28;20210;-40
2022/09/24 09:49:04;;;;;;;14.73;10.37;;;17.40;99.90;;;;;;5073091;28;20629;-40
2022/09/24 09:51:36;;;;;;;16.23;10.40;;;17.50;99.90;;;;;;5072805;28;20209;-40
2022/09/24 09:54:02;;;;;;;13.93;10.63;;;17.60;99.90;;;;;;5073500;28;20166;-41
2022/09/24 09:56:42;;;;;;;20.17;11.53;;;17.60;99.90;;;;;;5073514;28;20253;-40
2022/09/24 09:59:10;;;;;;;16.63;11.40;;;17.60;99.90;;;;;;5073160;28;20160;-41
2022/09/24 10:01:42;;;;;;;15.93;11.17;;;17.60;99.90;;;;;;5072736;28;20188;-39
2022/09/24 10:04:27;;;;;;;15.60;11.27;;;17.70;99.90;;;;;;5073308;28;20177;-39
2022/09/24 10:07:07;;;;;;;15.90;11.50;;;17.80;99.90;;;;;;5072989;28;20215;-41
2022/09/24 10:09:33;;;;;;;15.07;11.13;;;17.80;99.90;;;;;;5054790;28;20577;-40
2022/09/24 10:12:20;;;;;;;19.13;11.87;;;17.80;99.90;;;;;;5072945;28;20210;-42
2022/09/24 10:14:56;;;;;;;15.20;11.73;;;17.80;99.90;;;;;;5072720;28;20156;-39
2022/09/24 10:17:26;;;;;;;18.40;11.30;;;17.80;99.90;;;;;;5072672;28;20218;-40
2022/09/24 10:19:53;;;;;;;13.00;10.03;;;17.90;99.90;;;;;;5073031;28;20171;-40
2022/09/24 10:22:22;;;;;;;14.93;11.23;;;17.90;99.90;;;;;;5072538;28;20653;-41
2022/09/24 10:24:50;;;;;;;19.13;10.53;;;18.00;99.90;;;;;;5054598;28;20183;-39
2022/09/24 10:27:28;;;;;;;15.70;11.13;;;18.00;99.90;;;;;;5072725;28;20212;-42
2022/09/24 10:32:40;;;;;;;15.00;10.70;;;18.10;99.90;;;;;;5072504;28;20214;-40
2022/09/24 10:35:22;;;;;;;15.50;9.70;;;18.10;99.90;;;;;;5072679;28;20230;-41
2022/09/24 10:37:52;;;;;;;14.70;10.40;;;18.10;99.90;;;;;;5072511;28;20192;-42
2022/09/24 10:40:24;;;;;;;13.67;9.57;;;18.20;99.90;;;;;;5072434;28;20168;-41
2022/09/24 10:42:57;;;;;;;12.63;8.80;;;18.20;99.90;;;;;;5072858;28;20163;-40
2022/09/24 10:45:50;;;;;;;14.27;10.73;;;18.20;99.90;;;;;;5074435;28;20179;-42
2022/09/24 10:48:32;;;;;;;13.40;10.30;;;18.20;99.90;;;;;;5070836;28;20211;-40
2022/09/24 10:51:19;;;;;;;15.40;10.13;;;18.20;99.90;;;;;;5076156;28;20180;-40
2022/09/24 10:54:32;;;;;;;17.87;11.27;;;18.30;99.90;;;;;;5076294;28;20178;-39
2022/09/24 10:57:02;;;;;;;20.40;12.40;;;18.30;99.90;;;;;;5000031;28;20214;-41
2022/09/24 10:59:46;;;;;;;17.70;12.50;;;18.40;99.90;;;;;;5075857;28;20247;-40
2022/09/24 11:02:12;;;;;;;18.07;12.30;;;18.40;99.90;;;;;;5075828;28;20182;-40
2022/09/24 11:04:51;;;;;;;14.77;12.53;;;18.40;99.90;;;;;;5057841;28;20176;-43
2022/09/24 11:07:44;;;;;;;15.67;11.70;;;18.50;99.90;;;;;;5058049;28;20210;-42
2022/09/24 11:10:44;;;;;;;16.53;11.73;;;18.50;99.90;;;;;;5075766;28;20164;-40
2022/09/24 11:13:26;;;;;;;12.77;11.27;;;18.50;99.90;;;;;;5076524;28;20591;-43
2022/09/24 11:16:10;;;;;;;14.20;11.43;;;18.60;99.90;;;;;;5075939;28;20246;-42
2022/09/24 11:18:52;;;;;;;18.80;12.03;;;18.70;99.90;;;;;;5075615;28;20245;-43
2022/09/24 11:21:43;;;;;;;14.73;12.37;;;18.70;99.90;;;;;;5075850;28;20640;-40
2022/09/24 11:24:25;;;;;;;17.03;11.70;;;18.80;99.90;;;;;;5075674;28;20539;-45
2022/09/24 11:27:32;;;;;;;14.83;11.20;;;18.80;99.90;;;;;;5075827;28;20656;-39
2022/09/24 11:29:57;;;;;;;15.07;10.77;;;18.80;99.90;;;;;;5074550;28;20234;-41
2022/09/24 11:32:35;;;;;;;17.80;11.47;;;18.80;99.90;;;;;;5075440;28;20680;-42
2022/09/24 11:35:38;;;;;;;13.10;10.57;;;18.80;99.90;;;;;;5075171;28;20668;-40
2022/09/24 11:38:22;;;;;;;15.90;11.47;;;18.80;99.90;;;;;;5075052;28;20244;-41
2022/09/24 11:41:25;;;;;;;15.33;11.03;;;18.90;99.90;;;;;;5075059;28;20686;-40
2022/09/24 11:44:31;;;;;;;15.53;10.43;;;18.90;99.90;;;;;;5061509;28;20567;-39
2022/09/24 11:47:18;;;;;;;16.30;10.87;;;18.90;99.90;;;;;;5075197;28;20206;-42
2022/09/24 11:49:55;;;;;;;14.53;10.80;;;18.90;99.90;;;;;;5074933;28;20164;-38
2022/09/24 11:52:35;;;;;;;13.37;10.93;;;19.00;99.90;;;;;;5074737;28;20687;-39
2022/09/24 11:55:04;;;;;;;13.93;10.67;;;19.00;99.90;;;;;;5074698;28;20626;-41
2022/09/24 11:57:39;;;;;;;14.53;9.97;;;18.90;99.90;;;;;;5074752;28;20191;-41
2022/09/24 12:00:16;;;;;;;13.33;10.90;;;18.80;99.90;;;;;;5056800;28;20208;-41
2022/09/24 12:03:11;;;;;;;14.20;11.17;;;18.80;99.90;;;;;;5074803;28;20172;-39
2022/09/24 12:05:48;;;;;;;16.77;11.07;;;18.80;99.90;;;;;;5074688;28;20156;-40
2022/09/24 12:08:28;;;;;;;13.77;10.03;;;18.80;99.90;;;;;;5074790;28;20269;-40
2022/09/24 12:11:29;;;;;;;19.97;11.90;;;18.90;99.90;;;;;;5074761;28;20167;-41
2022/09/24 12:14:12;;;;;;;12.70;10.33;;;18.80;99.90;;;;;;5074259;28;20198;-41
2022/09/24 12:16:39;;;;;;;15.20;10.70;;;18.80;99.90;;;;;;5074512;28;20195;-39
2022/09/24 12:19:18;;;;;;;18.27;10.30;;;18.80;99.90;;;;;;5074560;28;20179;-39
2022/09/24 12:21:46;;;;;;;15.83;10.33;;;18.80;99.90;;;;;;5056347;28;20184;-40
2022/09/24 12:24:34;;;;;;;14.30;11.00;;;18.80;99.90;;;;;;5074475;28;20518;-42
2022/09/24 12:27:22;;;;;;;14.70;10.93;;;18.80;99.90;;;;;;5074270;28;20661;-39
2022/09/24 12:33:17;;;;;;;14.87;10.67;;;18.80;99.90;;;;;;5073416;28;20621;-41
2022/09/24 12:36:15;;;;;;;13.23;10.33;;;18.80;99.90;;;;;;5074294;28;20208;-41
2022/09/24 12:39:11;;;;;;;15.27;10.43;;;18.90;99.90;;;;;;5074158;28;20160;-41
2022/09/24 12:41:40;;;;;;;15.40;10.20;;;18.90;99.90;;;;;;5068861;28;20203;-40
2022/09/24 12:44:11;;;;;;;14.67;10.40;;;18.90;99.90;;;;;;5074255;28;20184;-41
2022/09/24 12:46:43;;;;;;;14.17;10.13;;;18.90;99.90;;;;;;5055742;28;20202;-40
2022/09/24 12:49:27;;;;;;;15.10;10.57;;;19.00;99.90;;;;;;5074096;28;20175;-40
2022/09/24 12:51:56;;;;;;;14.83;11.13;;;18.90;99.90;;;;;;5073865;28;20320;-42
2022/09/24 12:54:28;;;;;;;14.07;10.90;;;18.90;99.90;;;;;;5073599;28;20549;-42
2022/09/24 12:57:18;;;;;;;15.47;10.60;;;19.00;99.90;;;;;;5073743;28;20196;-42
2022/09/24 12:59:55;;;;;;;14.43;11.17;;;18.80;99.90;;;;;;5073854;28;20163;-37
2022/09/24 13:02:31;;;;;;;13.30;10.67;;;18.70;99.90;;;;;;5073576;28;20284;-40
2022/09/24 13:05:01;;;;;;;16.97;10.30;;;18.60;99.90;;;;;;5073682;28;20626;-39
2022/09/24 13:07:41;;;;;;;16.20;11.90;;;18.50;99.90;;;;;;5073081;28;20199;-37
2022/09/24 13:10:15;;;;;;;16.40;11.63;;;18.40;99.90;;;;;;5073491;28;20175;-41
2022/09/24 13:12:42;;;;;;;13.60;10.40;;;18.30;99.90;;;;;;5073524;28;20229;-42
2022/09/24 13:15:33;;;;;;;15.83;10.57;;;18.10;99.90;;;;;;5073330;28;20164;-40